Terminal Aerodrome Forecast
Issued by NWS

Home | Current Version | Previous Version | Text Only | Print | Product List | Glossary On
Versions: 1 2 3 4 5 6 7 8 9 10 11 12 13 14 15 16 17 18 19 20 21 22 23 24 25 26 27 28 29 30 31 32 33 34 35 36 37 38 39 40 41 42 43 44 45 46 47 48 49 50
000
FTUS45 KBYZ 301120
TAFLVM
TAF
KLVM 301120Z 3012/0112 26015KT P6SM OVC050
     FM301400 24023G29KT P6SM -RA SCT007 OVC050
     FM301800 27018G29KT P6SM -RA SCT050 BKN070
     FM010300 27009KT P6SM OVC100=

USA.gov is the U.S. government's official web portal to all federal, state and local government web resources and services.